createdAt,value
2023-03-12T00:00:41.070Z,3.42
2023-03-12T00:05:44.364Z,2.90
2023-03-12T00:10:46.310Z,2.80
2023-03-12T00:15:48.175Z,2.22
2023-03-12T00:20:54.481Z,2.53
2023-03-12T00:26:03.967Z,2.63
2023-03-12T00:31:21.156Z,2.80
2023-03-12T00:36:26.855Z,2.50
2023-03-12T00:41:29.535Z,2.22
2023-03-12T00:46:31.457Z,2.40
2023-03-12T00:51:34.115Z,2.10
2023-03-12T00:56:35.909Z,2.35
2023-03-12T01:01:37.863Z,2.40
2023-03-12T01:06:40.704Z,2.28
2023-03-12T01:11:42.665Z,2.15
2023-03-12T01:16:44.588Z,1.70
2023-03-12T01:21:48.079Z,2.40
2023-03-12T01:26:50.085Z,2.13
2023-03-12T01:31:52.395Z,1.85
2023-03-12T01:36:55.536Z,1.77
2023-03-12T01:41:57.388Z,1.60
2023-03-12T01:46:59.371Z,2.40
2023-03-12T01:52:13.215Z,2.00
2023-03-12T01:57:31.340Z,1.92
2023-03-12T02:02:36.107Z,1.88
2023-03-12T02:07:38.458Z,1.73
2023-03-12T02:12:40.406Z,1.33
2023-03-12T02:17:42.473Z,2.45
2023-03-12T02:22:51.534Z,1.92
2023-03-12T02:27:54.401Z,2.05
2023-03-12T02:32:56.773Z,2.13
2023-03-12T02:37:59.023Z,1.90
2023-03-12T02:43:03.394Z,1.80
2023-03-12T02:48:09.447Z,1.80
2023-03-12T02:53:13.731Z,1.65
2023-03-12T02:58:15.806Z,1.50
2023-03-12T03:03:18.106Z,1.30
2023-03-12T03:08:20.293Z,1.60
2023-03-12T03:13:22.930Z,2.30
2023-03-12T03:18:25.269Z,1.10
2023-03-12T03:23:28.416Z,1.55
2023-03-12T03:28:30.895Z,1.50
2023-03-12T03:33:34.600Z,1.90
2023-03-12T03:38:37.793Z,1.95
2023-03-12T03:43:40.792Z,1.98
2023-03-12T03:48:43.740Z,2.40
2023-03-12T03:53:47.332Z,1.60
2023-03-12T03:58:49.374Z,1.58
2023-03-12T04:03:53.792Z,1.45
2023-03-12T04:08:57.518Z,1.73
2023-03-12T04:14:00.797Z,1.50
2023-03-12T04:19:06.204Z,1.00
2023-03-12T04:24:26.058Z,2.00
2023-03-12T04:29:28.170Z,1.52
2023-03-12T04:34:31.394Z,1.50
2023-03-12T04:39:35.131Z,1.70
2023-03-12T04:44:37.819Z,1.42
2023-03-12T04:49:40.328Z,1.70
2023-03-12T04:54:42.360Z,1.55
2023-03-12T04:59:44.609Z,2.10
2023-03-12T05:04:46.960Z,2.50
2023-03-12T05:09:48.900Z,2.58
2023-03-12T05:14:51.322Z,1.70
2023-03-12T05:19:54.382Z,1.27
2023-03-12T05:24:56.477Z,1.58
2023-03-12T05:29:58.825Z,1.50
2023-03-12T05:35:01.276Z,1.60
2023-03-12T05:40:04.401Z,1.30
2023-03-12T05:45:07.011Z,1.50
2023-03-12T05:50:11.662Z,1.50
2023-03-12T05:55:13.829Z,1.50
2023-03-12T06:00:17.916Z,1.17
2023-03-12T06:05:32.288Z,1.95
2023-03-12T06:10:34.565Z,2.28
2023-03-12T06:15:37.125Z,4.65
2023-03-12T06:20:43.211Z,1.52
2023-03-12T06:25:45.945Z,1.67
2023-03-12T06:30:48.771Z,1.60
2023-03-12T06:35:54.526Z,1.17
2023-03-12T06:41:01.909Z,1.63
2023-03-12T06:46:05.396Z,1.58
2023-03-12T06:51:11.568Z,1.30
2023-03-12T06:56:14.018Z,1.10
2023-03-12T07:01:15.990Z,0.95
2023-03-12T07:06:21.266Z,1.52
2023-03-12T07:11:23.562Z,0.98
2023-03-12T07:16:25.344Z,2.38
2023-03-12T07:21:27.407Z,1.20
2023-03-12T07:26:31.706Z,1.20
2023-03-12T07:31:33.687Z,1.30
2023-03-12T07:36:35.716Z,1.48
2023-03-12T07:41:39.194Z,1.50
2023-03-12T07:46:41.146Z,1.30
2023-03-12T07:51:43.292Z,1.30
2023-03-12T07:56:45.599Z,1.50
2023-03-12T08:01:48.073Z,1.50
2023-03-12T08:06:50.289Z,1.65
2023-03-12T08:11:52.285Z,1.50
2023-03-12T08:16:55.274Z,1.42
2023-03-12T08:21:58.168Z,0.90
2023-03-12T08:26:59.950Z,1.25
2023-03-12T08:32:05.400Z,1.45
2023-03-12T08:37:07.619Z,1.30
2023-03-12T08:42:09.416Z,1.00
2023-03-12T08:47:11.321Z,1.00
2023-03-12T08:52:13.147Z,1.52
2023-03-12T08:57:15.795Z,1.40
2023-03-12T09:02:18.744Z,1.20
2023-03-12T09:07:22.268Z,1.10
2023-03-12T09:12:25.162Z,1.00
2023-03-12T09:17:29.202Z,1.05
2023-03-12T09:22:33.177Z,1.38
2023-03-12T09:27:46.187Z,1.17
2023-03-12T09:32:50.167Z,1.20
2023-03-12T09:37:52.005Z,0.90
2023-03-12T09:42:58.310Z,0.70
2023-03-12T09:48:03.571Z,1.52
2023-03-12T09:53:44.552Z,1.27
2023-03-12T09:58:48.553Z,1.30
2023-03-12T10:04:19.588Z,1.10
2023-03-12T10:09:33.998Z,1.35
2023-03-12T10:15:21.118Z,1.10
2023-03-12T10:21:15.525Z,1.20
2023-03-12T10:26:36.319Z,0.93
2023-03-12T10:31:50.106Z,1.27
2023-03-12T10:36:52.824Z,0.70
2023-03-12T10:41:56.463Z,1.10
2023-03-12T10:47:35.623Z,1.10
2023-03-12T10:52:37.800Z,1.20
2023-03-12T10:57:42.448Z,0.90
2023-03-12T11:02:48.526Z,0.95
2023-03-12T11:07:51.412Z,1.05
2023-03-12T11:13:06.009Z,1.17
2023-03-12T11:18:25.519Z,1.17
2023-03-12T11:23:30.672Z,1.40
2023-03-12T11:28:42.985Z,1.10
2023-03-12T11:33:44.912Z,1.10
2023-03-12T11:38:46.766Z,1.15
2023-03-12T11:43:57.643Z,0.80
2023-03-12T11:49:22.632Z,0.98
2023-03-12T11:54:48.739Z,1.05
2023-03-12T11:59:55.648Z,1.20
2023-03-12T12:05:07.305Z,1.50
2023-03-12T12:10:09.138Z,1.95
2023-03-12T12:15:38.473Z,1.73
2023-03-12T12:21:06.267Z,1.70
2023-03-12T12:26:12.717Z,1.97
2023-03-12T12:31:50.735Z,1.88
2023-03-12T12:37:30.732Z,1.37
2023-03-12T12:42:36.832Z,1.75
2023-03-12T12:47:46.741Z,2.17
2023-03-12T12:52:58.785Z,1.92
2023-03-12T12:58:19.976Z,1.73
2023-03-12T13:03:24.877Z,2.22
2023-03-12T13:08:56.780Z,1.88
2023-03-12T13:14:02.926Z,2.05
2023-03-12T13:19:28.021Z,1.88
2023-03-12T13:24:35.659Z,1.50
2023-03-12T13:29:41.516Z,1.50
2023-03-12T13:34:46.729Z,1.95
2023-03-12T13:39:48.725Z,1.70
2023-03-12T13:44:52.547Z,2.42
2023-03-12T13:50:00.357Z,1.75
2023-03-12T13:55:14.199Z,1.50
2023-03-12T14:00:29.277Z,1.30
2023-03-12T14:05:34.779Z,1.40
2023-03-12T14:10:47.715Z,1.50
2023-03-12T14:16:05.718Z,2.10
2023-03-12T14:21:10.699Z,1.63
2023-03-12T14:26:20.557Z,2.17
2023-03-12T14:31:27.088Z,2.47
2023-03-12T14:37:01.524Z,2.28
2023-03-12T14:42:07.277Z,1.58
2023-03-12T14:47:11.724Z,1.42
2023-03-12T14:52:22.955Z,1.75
2023-03-12T14:57:24.992Z,3.25
2023-03-12T15:02:30.213Z,2.25
2023-03-12T15:07:37.450Z,2.50
2023-03-12T15:12:39.422Z,2.58
2023-03-12T15:17:41.380Z,2.13
2023-03-12T15:22:43.784Z,1.80
2023-03-12T15:27:45.690Z,2.60
2023-03-12T15:33:09.398Z,2.22
2023-03-12T15:38:17.279Z,2.97
2023-03-12T15:43:21.873Z,2.60
2023-03-12T15:48:29.364Z,2.33
2023-03-12T15:53:34.754Z,2.30
2023-03-12T15:58:41.954Z,2.53
2023-03-12T16:03:45.719Z,2.20
2023-03-12T16:08:51.599Z,3.60
2023-03-12T16:14:04.718Z,2.28
2023-03-12T16:19:15.761Z,2.45
2023-03-12T16:24:17.763Z,2.33
2023-03-12T16:29:21.762Z,2.95
2023-03-12T16:34:24.341Z,2.53
2023-03-12T16:39:30.521Z,3.33
2023-03-12T16:44:35.106Z,2.10
2023-03-12T16:49:37.117Z,1.70
2023-03-12T16:54:39.477Z,1.13
2023-03-12T16:59:41.430Z,1.65
2023-03-12T17:04:43.905Z,1.55
2023-03-12T17:09:45.644Z,1.40
2023-03-12T17:14:48.758Z,1.33
2023-03-12T17:19:52.222Z,1.90
2023-03-12T17:24:54.551Z,1.67
2023-03-12T17:29:56.428Z,1.58
2023-03-12T17:34:59.990Z,1.73
2023-03-12T17:40:07.769Z,1.58
2023-03-12T17:45:12.806Z,1.40
2023-03-12T17:50:15.622Z,1.25
2023-03-12T17:55:17.666Z,1.48
2023-03-12T18:00:22.059Z,1.50
2023-03-12T18:05:25.074Z,1.92
2023-03-12T18:10:33.118Z,1.88
2023-03-12T18:15:34.972Z,1.42
2023-03-12T18:20:39.564Z,1.33
2023-03-12T18:25:42.200Z,1.55
2023-03-12T18:30:48.187Z,1.40
2023-03-12T18:35:54.231Z,1.05
2023-03-12T18:41:07.515Z,1.10
2023-03-12T18:46:09.498Z,0.60
2023-03-12T18:51:14.381Z,1.10
2023-03-12T18:56:16.451Z,1.52
2023-03-12T19:01:18.536Z,1.92
2023-03-12T19:06:20.719Z,1.20
2023-03-12T19:11:23.822Z,1.20
2023-03-12T19:16:25.749Z,0.90
2023-03-12T19:21:27.647Z,1.40
2023-03-12T19:26:29.817Z,1.45
2023-03-12T19:31:33.162Z,1.40
2023-03-12T19:36:37.220Z,1.38
2023-03-12T19:41:40.944Z,1.27
2023-03-12T19:46:43.397Z,1.27
2023-03-12T19:51:48.564Z,0.98
2023-03-12T19:56:50.659Z,1.50
2023-03-12T20:01:56.054Z,1.48
2023-03-12T20:06:58.015Z,1.13
2023-03-12T20:12:01.789Z,1.08
2023-03-12T20:17:03.609Z,1.30
2023-03-12T20:22:06.502Z,1.30
2023-03-12T20:27:08.491Z,1.20
2023-03-12T20:32:10.576Z,1.27
2023-03-12T20:37:12.682Z,1.20
2023-03-12T20:42:14.483Z,1.73
2023-03-12T20:47:16.352Z,1.63
2023-03-12T20:52:18.723Z,1.45
2023-03-12T20:57:20.632Z,1.38
2023-03-12T21:02:23.650Z,1.38
2023-03-12T21:07:26.625Z,1.60
2023-03-12T21:12:28.558Z,1.60
2023-03-12T21:17:33.906Z,1.40
2023-03-12T21:22:36.506Z,1.10
2023-03-12T21:27:49.852Z,1.83
2023-03-12T21:32:53.112Z,1.20
2023-03-12T21:37:56.395Z,1.25
2023-03-12T21:43:00.843Z,1.40
2023-03-12T21:48:02.912Z,1.52
2023-03-12T21:53:09.165Z,1.63
2023-03-12T21:58:19.655Z,1.88
2023-03-12T22:03:21.421Z,2.00
2023-03-12T22:08:23.186Z,1.70
2023-03-12T22:13:25.168Z,2.70
2023-03-12T22:18:28.052Z,1.75
2023-03-12T22:23:30.474Z,1.77
2023-03-12T22:28:33.238Z,1.90
2023-03-12T22:33:37.074Z,1.70
2023-03-12T22:38:40.166Z,2.30
2023-03-12T22:43:50.721Z,2.15
2023-03-12T22:48:58.530Z,2.25
2023-03-12T22:54:00.836Z,2.30
2023-03-12T22:59:02.786Z,2.20
2023-03-12T23:04:06.459Z,2.20
2023-03-12T23:09:08.490Z,3.33
2023-03-12T23:14:10.433Z,3.58
2023-03-12T23:19:14.752Z,2.17
2023-03-12T23:24:16.693Z,2.22
2023-03-12T23:29:18.534Z,2.72
2023-03-12T23:34:20.604Z,2.42
2023-03-12T23:39:22.782Z,2.40
2023-03-12T23:44:25.103Z,2.80
2023-03-12T23:49:27.064Z,3.10
2023-03-12T23:54:28.970Z,2.70
2023-03-12T23:59:30.869Z,2.83
